createdAt,value
2023-09-10T00:04:45.685Z,21.81
2023-09-10T00:09:47.152Z,21.63
2023-09-10T00:14:48.626Z,21.67
2023-09-10T00:19:50.214Z,21.56
2023-09-10T00:24:51.719Z,21.65
2023-09-10T00:29:53.205Z,21.69
2023-09-10T00:34:54.762Z,21.58
2023-09-10T00:39:56.259Z,21.71
2023-09-10T00:44:57.871Z,21.41
2023-09-10T00:50:00.305Z,21.45
2023-09-10T00:55:01.890Z,21.45
2023-09-10T01:00:08.933Z,21.55
2023-09-10T01:05:12.416Z,21.36
2023-09-10T01:10:14.691Z,21.31
2023-09-10T01:15:16.182Z,21.36
2023-09-10T01:20:27.312Z,21.31
2023-09-10T01:25:30.218Z,21.34
2023-09-10T01:30:32.591Z,21.19
2023-09-10T01:35:41.206Z,21.12
2023-09-10T01:40:50.072Z,21.06
2023-09-10T01:45:52.152Z,21.04
2023-09-10T01:50:55.279Z,20.95
2023-09-10T01:55:57.321Z,21.06
2023-09-10T02:00:58.816Z,21.08
2023-09-10T02:06:04.473Z,20.96
2023-09-10T02:11:06.588Z,21.03
2023-09-10T02:16:09.313Z,21.04
2023-09-10T02:21:14.027Z,20.95
2023-09-10T02:26:17.063Z,20.86
2023-09-10T02:31:22.093Z,21.04
2023-09-10T02:36:23.635Z,21.06
2023-09-10T02:41:25.136Z,21.01
2023-09-10T02:46:29.006Z,20.78
2023-09-10T02:51:30.683Z,20.57
2023-09-10T02:56:32.461Z,20.68
2023-09-10T03:01:34.012Z,20.81
2023-09-10T03:06:35.522Z,20.76
2023-09-10T03:11:39.073Z,20.74
2023-09-10T03:16:41.460Z,20.54
2023-09-10T03:21:44.832Z,20.39
2023-09-10T03:26:46.507Z,20.52
2023-09-10T03:31:48.118Z,20.51
2023-09-10T03:36:49.661Z,20.58
2023-09-10T03:41:53.121Z,20.48
2023-09-10T03:46:55.061Z,20.66
2023-09-10T03:51:58.702Z,20.59
2023-09-10T03:57:00.313Z,20.59
2023-09-10T04:02:01.961Z,20.53
2023-09-10T04:07:04.393Z,20.56
2023-09-10T04:12:06.073Z,20.40
2023-09-10T04:17:07.669Z,20.27
2023-09-10T04:22:09.263Z,20.21
2023-09-10T04:27:10.888Z,20.26
2023-09-10T04:32:12.600Z,20.16
2023-09-10T04:37:15.726Z,20.21
2023-09-10T04:42:17.555Z,20.25
2023-09-10T04:47:19.235Z,20.29
2023-09-10T04:52:20.955Z,20.34
2023-09-10T04:57:22.533Z,20.39
2023-09-10T05:02:24.508Z,20.24
2023-09-10T05:07:26.172Z,20.15
2023-09-10T05:12:27.718Z,20.06
2023-09-10T05:17:29.325Z,19.98
2023-09-10T05:22:31.081Z,20.10
2023-09-10T05:27:33.268Z,20.02
2023-09-10T05:32:35.633Z,20.32
2023-09-10T05:37:37.302Z,20.42
2023-09-10T05:42:38.922Z,20.47
2023-09-10T05:47:40.550Z,20.48
2023-09-10T05:52:42.175Z,20.35
2023-09-10T05:57:43.756Z,20.58
2023-09-10T06:02:45.354Z,20.75
2023-09-10T06:07:49.185Z,20.83
2023-09-10T06:12:50.901Z,20.79
2023-09-10T06:17:52.583Z,20.89
2023-09-10T06:22:54.176Z,20.83
2023-09-10T06:27:56.020Z,20.85
2023-09-10T06:32:58.000Z,20.89
2023-09-10T06:37:59.841Z,21.14
2023-09-10T06:43:01.487Z,21.16
2023-09-10T06:48:15.932Z,21.42
2023-09-10T06:53:17.425Z,21.43
2023-09-10T06:58:19.163Z,21.52
2023-09-10T07:03:20.731Z,21.53
2023-09-10T07:08:22.203Z,21.61
2023-09-10T07:13:23.734Z,21.65
2023-09-10T07:18:25.216Z,21.83
2023-09-10T07:23:27.553Z,21.96
2023-09-10T07:28:29.100Z,22.13
2023-09-10T07:33:30.582Z,22.24
2023-09-10T07:38:32.685Z,22.46
2023-09-10T07:43:34.196Z,22.54
2023-09-10T07:48:36.506Z,22.78
2023-09-10T07:53:38.104Z,22.95
2023-09-10T07:58:39.862Z,23.17
2023-09-10T08:03:43.291Z,23.36
2023-09-10T08:08:44.958Z,23.62
2023-09-10T08:13:46.646Z,23.72
2023-09-10T08:18:48.178Z,23.83
2023-09-10T08:23:50.010Z,23.93
2023-09-10T08:28:52.854Z,24.09
2023-09-10T08:33:54.399Z,24.30
2023-09-10T08:38:56.103Z,24.38
2023-09-10T08:43:59.334Z,24.67
2023-09-10T08:49:02.121Z,24.85
2023-09-10T08:54:04.044Z,25.04
2023-09-10T08:59:07.523Z,25.10
2023-09-10T09:04:10.226Z,25.46
2023-09-10T09:09:15.831Z,25.47
2023-09-10T09:14:18.932Z,25.67
2023-09-10T09:19:22.996Z,25.70
2023-09-10T09:24:26.101Z,25.95
2023-09-10T09:29:29.820Z,26.17
2023-09-10T09:34:33.547Z,26.38
2023-09-10T09:39:36.009Z,26.39
2023-09-10T09:44:37.754Z,26.61
2023-09-10T09:49:46.036Z,26.71
2023-09-10T09:54:50.695Z,27.08
2023-09-10T09:59:52.628Z,27.25
2023-09-10T10:04:55.156Z,27.42
2023-09-10T10:09:59.410Z,27.30
2023-09-10T10:15:01.075Z,27.58
2023-09-10T10:20:06.097Z,27.53
2023-09-10T10:25:08.945Z,27.78
2023-09-10T10:30:11.304Z,27.98
2023-09-10T10:35:13.364Z,27.92
2023-09-10T10:40:19.779Z,27.99
2023-09-10T10:45:25.386Z,28.21
2023-09-10T10:50:28.393Z,28.26
2023-09-10T10:55:31.772Z,28.43
2023-09-10T11:00:33.879Z,28.48
2023-09-10T11:06:07.914Z,28.52
2023-09-10T11:11:32.331Z,28.57
2023-09-10T11:16:37.943Z,28.70
2023-09-10T11:21:54.799Z,29.16
2023-09-10T11:27:22.354Z,29.14
2023-09-10T11:32:23.871Z,29.02
2023-09-10T11:37:25.628Z,29.02
2023-09-10T11:42:27.501Z,29.40
2023-09-10T11:47:30.034Z,29.51
2023-09-10T11:52:31.975Z,29.72
2023-09-10T11:57:33.643Z,29.74
2023-09-10T12:02:37.118Z,29.51
2023-09-10T12:07:38.811Z,29.76
2023-09-10T12:12:43.791Z,29.54
2023-09-10T12:17:45.637Z,29.51
2023-09-10T12:22:47.340Z,29.72
2023-09-10T12:27:48.877Z,29.71
2023-09-10T12:32:51.839Z,29.95
2023-09-10T12:37:55.278Z,29.86
2023-09-10T12:42:56.880Z,30.10
2023-09-10T12:47:58.507Z,30.07
2023-09-10T12:53:01.439Z,30.45
2023-09-10T12:58:03.381Z,30.35
2023-09-10T13:03:05.447Z,30.31
2023-09-10T13:08:07.327Z,30.58
2023-09-10T13:13:08.937Z,30.45
2023-09-10T13:18:10.701Z,30.55
2023-09-10T13:23:12.400Z,30.62
2023-09-10T13:28:13.987Z,30.37
2023-09-10T13:33:15.583Z,30.44
2023-09-10T13:38:17.194Z,30.46
2023-09-10T13:43:18.680Z,30.57
2023-09-10T13:48:20.314Z,30.81
2023-09-10T13:53:21.968Z,30.80
2023-09-10T13:58:23.483Z,30.59
2023-09-10T14:03:27.858Z,30.72
2023-09-10T14:08:29.460Z,30.52
2023-09-10T14:13:30.946Z,30.27
2023-09-10T14:18:33.489Z,30.14
2023-09-10T14:23:35.086Z,29.99
2023-09-10T14:28:36.631Z,29.74
2023-09-10T14:33:38.723Z,29.55
2023-09-10T14:38:40.624Z,29.63
2023-09-10T14:43:42.498Z,29.87
2023-09-10T14:48:44.221Z,30.03
2023-09-10T14:53:45.848Z,30.04
2023-09-10T14:58:48.452Z,29.93
2023-09-10T15:03:50.253Z,29.76
2023-09-10T15:08:52.056Z,29.83
2023-09-10T15:13:53.538Z,29.94
2023-09-10T15:18:55.031Z,30.00
2023-09-10T15:23:56.542Z,29.93
2023-09-10T15:28:58.193Z,30.00
2023-09-10T15:33:59.774Z,30.08
2023-09-10T15:39:01.300Z,29.87
2023-09-10T15:44:02.944Z,29.98
2023-09-10T15:49:07.888Z,30.06
2023-09-10T15:54:09.433Z,30.03
2023-09-10T15:59:10.981Z,29.85
2023-09-10T16:04:12.592Z,29.64
2023-09-10T16:09:14.199Z,29.66
2023-09-10T16:14:15.717Z,29.78
2023-09-10T16:19:17.256Z,29.78
2023-09-10T16:24:18.734Z,29.68
2023-09-10T16:29:20.266Z,29.46
2023-09-10T16:34:21.776Z,29.25
2023-09-10T16:39:23.292Z,29.19
2023-09-10T16:44:29.171Z,29.05
2023-09-10T16:49:30.860Z,28.91
2023-09-10T16:54:32.350Z,28.75
2023-09-10T16:59:33.865Z,28.66
2023-09-10T17:04:35.484Z,28.63
2023-09-10T17:09:37.432Z,28.59
2023-09-10T17:14:39.050Z,28.48
2023-09-10T17:19:42.827Z,28.36
2023-09-10T17:24:44.381Z,28.53
2023-09-10T17:29:45.980Z,28.45
2023-09-10T17:34:47.905Z,28.21
2023-09-10T17:39:53.032Z,27.95
2023-09-10T17:44:58.359Z,27.94
2023-09-10T17:50:07.023Z,27.90
2023-09-10T17:55:09.039Z,27.79
2023-09-10T18:00:11.084Z,27.56
2023-09-10T18:05:12.581Z,27.30
2023-09-10T18:10:14.260Z,27.15
2023-09-10T18:15:16.328Z,27.03
2023-09-10T18:20:17.977Z,26.89
2023-09-10T18:25:21.209Z,26.81
2023-09-10T18:30:25.106Z,26.65
2023-09-10T18:35:26.678Z,26.56
2023-09-10T18:40:28.192Z,26.46
2023-09-10T18:45:30.581Z,26.38
2023-09-10T18:50:32.149Z,26.32
2023-09-10T18:55:33.813Z,26.23
2023-09-10T19:00:35.758Z,26.18
2023-09-10T19:05:42.256Z,26.09
2023-09-10T19:10:43.930Z,26.08
2023-09-10T19:15:46.073Z,25.85
2023-09-10T19:20:49.618Z,25.76
2023-09-10T19:25:52.618Z,25.63
2023-09-10T19:30:55.748Z,25.81
2023-09-10T19:36:03.546Z,25.67
2023-09-10T19:41:05.250Z,25.49
2023-09-10T19:46:06.806Z,25.57
2023-09-10T19:51:08.812Z,25.44
2023-09-10T19:56:13.860Z,25.28
2023-09-10T20:01:15.963Z,25.05
2023-09-10T20:06:17.597Z,25.07
2023-09-10T20:11:19.229Z,25.11
2023-09-10T20:16:21.040Z,25.21
2023-09-10T20:21:23.020Z,25.00
2023-09-10T20:26:25.353Z,25.02
2023-09-10T20:31:26.987Z,24.96
2023-09-10T20:36:28.635Z,24.93
2023-09-10T20:41:30.297Z,24.97
2023-09-10T20:46:34.628Z,24.90
2023-09-10T20:51:37.317Z,24.67
2023-09-10T20:56:38.929Z,24.55
2023-09-10T21:01:40.599Z,24.47
2023-09-10T21:06:42.263Z,24.60
2023-09-10T21:11:44.020Z,24.48
2023-09-10T21:16:45.581Z,24.44
2023-09-10T21:21:47.182Z,24.41
2023-09-10T21:26:48.675Z,24.30
2023-09-10T21:31:50.341Z,24.29
2023-09-10T21:36:53.360Z,24.39
2023-09-10T21:41:54.883Z,24.30
2023-09-10T21:46:56.427Z,24.26
2023-09-10T21:51:57.946Z,24.31
2023-09-10T21:56:59.530Z,24.30
2023-09-10T22:02:01.205Z,24.27
2023-09-10T22:07:03.406Z,24.20
2023-09-10T22:12:08.354Z,24.11
2023-09-10T22:17:10.159Z,24.19
2023-09-10T22:22:11.836Z,24.15
2023-09-10T22:27:13.321Z,24.11
2023-09-10T22:32:15.371Z,24.03
2023-09-10T22:37:16.860Z,24.08
2023-09-10T22:42:19.350Z,23.97
2023-09-10T22:47:20.963Z,23.87
2023-09-10T22:52:22.455Z,23.83
2023-09-10T22:57:23.939Z,23.62
2023-09-10T23:02:25.974Z,23.78
2023-09-10T23:07:27.655Z,23.72
2023-09-10T23:12:31.496Z,23.47
2023-09-10T23:17:33.045Z,23.59
2023-09-10T23:22:34.604Z,23.62
2023-09-10T23:27:36.673Z,23.62
2023-09-10T23:32:38.618Z,23.66
2023-09-10T23:37:40.346Z,23.56
2023-09-10T23:42:41.815Z,23.52
2023-09-10T23:47:43.456Z,23.41
2023-09-10T23:52:45.069Z,23.35
2023-09-10T23:57:46.522Z,23.31
